| Date | Time | Temp. (oF) | Dew Point (oF) | Rel. Hum. (%) | Press. (in.) | Wind Dir. | Wind Speed (mph) | Hourly Rainfall (in.) |
|
|---|---|---|---|---|---|---|---|---|---|
| 1 | 02/07 | 00:00 | 30 | 26 | 85 | 30.06 | SSW | 2 | 0.00 |
| 2 | 02/06 | 23:00 | 36 | 28 | 73 | 30.05 | WSW | 0 | 0.00 |
| 3 | 02/06 | 22:00 | 36 | 28 | 73 | 30.05 | SW | 2 | 0.00 |
| 4 | 02/06 | 21:00 | 39 | 27 | 63 | 30.05 | SW | 4 | 0.00 |
| 5 | 02/06 | 20:00 | 41 | 26 | 56 | 30.05 | SW | 4 | 0.00 |
| 6 | 02/06 | 19:00 | 43 | 26 | 52 | 30.05 | SW | 5 | 0.00 |
| 7 | 02/06 | 18:00 | 44 | 25 | 48 | 30.04 | SW | 3 | 0.00 |
| 8 | 02/06 | 17:00 | 48 | 25 | 41 | 30.03 | WSW | 6 | 0.00 |
| 9 | 02/06 | 16:00 | 49 | 26 | 42 | 30.03 | S | 6 | 0.00 |
| 10 | 02/06 | 15:00 | 50 | 29 | 46 | 30.05 | SW | 10 | 0.00 |
| 11 | 02/06 | 14:00 | 48 | 29 | 49 | 30.09 | WSW | 11 | 0.00 |
| 12 | 02/06 | 13:00 | 47 | 30 | 52 | 30.14 | SW | 6 | 0.00 |
| 13 | 02/06 | 12:00 | 45 | 31 | 58 | 30.18 | SW | 5 | 0.00 |
| 14 | 02/06 | 11:00 | 43 | 30 | 62 | 30.21 | WNW | 9 | 0.00 |
| 15 | 02/06 | 10:00 | 36 | 31 | 84 | 30.22 | SSW | 4 | 0.00 |
| 16 | 02/06 | 09:00 | 31 | 29 | 96 | 30.23 | SE | 2 | 0.00 |
| 17 | 02/06 | 08:00 | 23 | 23 | 100 | 30.23 | S | 0 | 0.00 |
| 18 | 02/06 | 07:00 | 21 | 21 | 100 | 30.22 | S | 0 | 0.00 |
| 19 | 02/06 | 06:00 | 21 | 21 | 100 | 30.21 | S | 0 | 0.00 |
| 20 | 02/06 | 05:00 | 21 | 21 | 100 | 30.22 | SSW | 0 | 0.00 |
| 21 | 02/06 | 04:00 | 23 | 23 | 100 | 30.22 | SW | 0 | 0.00 |
| 22 | 02/06 | 03:00 | 22 | 22 | 100 | 30.21 | S | 0 | 0.00 |
| 23 | 02/06 | 02:00 | 23 | 23 | 100 | 30.22 | S | 0 | 0.00 |
| 24 | 02/06 | 01:00 | 25 | 24 | 100 | 30.23 | SW | 0 | 0.00 |